Terminal Aerodrome Forecast
Issued by NWS

Home | Current Version | Previous Version | Text Only | Print | Product List | Glossary On
Versions: 1 2 3 4 5 6 7 8 9 10 11 12 13
000
FTUS45 KREV 201120
TAFTVL
TAF
KTVL 201120Z 2012/2112 VRB03KT P6SM SCT110 BKN180
     FM202100 04005KT P6SM VCTS SCT070CB BKN110
     FM210200 18005KT P6SM VCSH SCT060 BKN090
     FM210500 VRB03KT P6SM SCT090=

USA.gov is the U.S. government's official web portal to all federal, state and local government web resources and services.